Terminal Aerodrome Forecast
Issued by NWS

Home | Current Version | Previous Version | Text Only | Print | Product List | Glossary On
Versions: 1 2 3 4 5 6 7 8 9 10 11 12 13 14 15 16
184
FTUS41 KBTV 281741
TAFRUT
TAF
KRUT 281741Z 2818/2918 20008G15KT P6SM FEW050
     FM290000 15008KT P6SM SCT050 BKN100 BKN150
      TEMPO 2900/2902 2SM TSRA BR OVC050CB
     FM290200 15004KT P6SM BKN080
     FM291200 32005KT P6SM BKN035
      AMD LTD TO CLD VIS AND WIND=

USA.gov is the U.S. government's official web portal to all federal, state and local government web resources and services.